createdAt,value
2023-01-10T05:00:32.274Z,3.20
2023-01-10T05:04:34.837Z,2.40
2023-01-10T05:08:37.552Z,2.75
2023-01-10T05:12:40.199Z,2.70
2023-01-10T05:16:44.136Z,2.70
2023-01-10T05:20:46.655Z,2.70
2023-01-10T05:24:49.959Z,3.85
2023-01-10T05:28:52.608Z,2.75
2023-01-10T05:32:56.462Z,2.73
2023-01-10T05:36:58.961Z,2.92
2023-01-10T05:41:02.167Z,2.88
2023-01-10T05:45:05.318Z,2.95
2023-01-10T05:49:09.151Z,3.30
2023-01-10T05:53:11.857Z,3.25
2023-01-10T05:57:14.414Z,3.50
2023-01-10T06:01:17.449Z,2.70
2023-01-10T06:05:21.378Z,3.05
2023-01-10T06:09:23.956Z,2.67
2023-01-10T06:13:26.464Z,3.70
2023-01-10T06:17:29.329Z,3.50
2023-01-10T06:21:33.184Z,3.67
2023-01-10T06:25:40.270Z,4.20
2023-01-10T06:29:42.865Z,4.95
2023-01-10T06:33:45.499Z,3.97
2023-01-10T06:37:49.477Z,3.47
2023-01-10T06:41:51.978Z,4.20
2023-01-10T06:45:54.498Z,4.63
2023-01-10T06:49:57.031Z,4.20
2023-01-10T06:54:00.862Z,4.07
2023-01-10T06:58:04.829Z,3.83
2023-01-10T07:02:07.477Z,3.58
2023-01-10T07:06:10.872Z,3.53
2023-01-10T07:10:14.806Z,4.07
2023-01-10T07:14:17.314Z,4.00
2023-01-10T07:18:19.832Z,4.47
2023-01-10T07:22:22.375Z,4.63
2023-01-10T07:26:26.221Z,4.57
2023-01-10T07:30:28.889Z,4.68
2023-01-10T07:34:31.513Z,4.57
2023-01-10T07:38:34.008Z,4.03
2023-01-10T07:42:37.859Z,4.15
2023-01-10T07:46:40.368Z,4.15
2023-01-10T07:50:42.871Z,4.15
2023-01-10T07:54:45.388Z,4.18
2023-01-10T07:58:49.248Z,4.50
2023-01-10T08:02:54.730Z,4.00
2023-01-10T08:06:57.294Z,4.95
2023-01-10T08:11:02.427Z,4.05
2023-01-10T08:15:07.191Z,4.57
2023-01-10T08:19:10.445Z,3.78
2023-01-10T08:23:12.949Z,4.10
2023-01-10T08:27:15.500Z,4.20
2023-01-10T08:31:19.366Z,4.10
2023-01-10T08:35:22.047Z,4.55
2023-01-10T08:39:26.520Z,5.00
2023-01-10T08:43:29.029Z,4.45
2023-01-10T08:47:35.219Z,4.65
2023-01-10T08:51:37.977Z,4.30
2023-01-10T08:55:40.492Z,4.10
2023-01-10T08:59:43.017Z,4.47
2023-01-10T09:03:46.900Z,3.97
2023-01-10T09:07:49.700Z,3.83
2023-01-10T09:11:52.213Z,4.70
2023-01-10T09:15:54.765Z,4.15
2023-01-10T09:19:58.618Z,3.83
2023-01-10T09:24:01.151Z,3.20
2023-01-10T09:28:04.900Z,2.60
2023-01-10T09:32:08.088Z,2.40
2023-01-10T09:36:13.634Z,2.33
2023-01-10T09:40:18.269Z,2.05
2023-01-10T09:44:29.357Z,2.20
2023-01-10T09:48:42.011Z,2.55
2023-01-10T09:52:51.585Z,2.47
2023-01-10T09:56:56.104Z,2.25
2023-01-10T10:01:00.961Z,2.30
2023-01-10T10:05:12.293Z,2.35
2023-01-10T10:09:19.841Z,2.05
2023-01-10T10:13:28.152Z,1.90
2023-01-10T10:17:42.923Z,1.90
2023-01-10T10:21:54.488Z,2.20
2023-01-10T10:26:05.324Z,1.90
2023-01-10T10:30:33.630Z,2.00
2023-01-10T10:34:42.021Z,2.60
2023-01-10T10:38:47.416Z,2.58
2023-01-10T10:42:53.909Z,2.50
2023-01-10T10:46:59.324Z,2.80
2023-01-10T10:51:08.082Z,2.63
2023-01-10T10:55:15.654Z,2.83
2023-01-10T10:59:20.609Z,3.50
2023-01-10T11:03:30.318Z,2.70
2023-01-10T11:07:35.702Z,3.10
2023-01-10T11:11:44.349Z,3.15
2023-01-10T11:15:50.534Z,2.80
2023-01-10T11:19:58.826Z,3.00
2023-01-10T11:24:01.911Z,3.13
2023-01-10T11:28:06.142Z,3.20
2023-01-10T11:32:15.606Z,3.40
2023-01-10T11:36:18.141Z,3.40
2023-01-10T11:40:25.265Z,3.25
2023-01-10T11:44:30.589Z,3.40
2023-01-10T11:49:04.964Z,3.50
2023-01-10T11:53:26.882Z,3.30
2023-01-10T11:57:31.850Z,3.10
2023-01-10T12:01:41.676Z,3.35
2023-01-10T12:05:55.815Z,3.75
2023-01-10T12:09:59.979Z,3.47
2023-01-10T12:14:03.673Z,3.17
2023-01-10T12:18:07.560Z,3.47
2023-01-10T12:22:16.024Z,3.25
2023-01-10T12:26:19.269Z,3.22
2023-01-10T12:30:29.793Z,2.80
2023-01-10T12:34:40.889Z,3.22
2023-01-10T12:39:03.815Z,2.53
2023-01-10T12:43:32.353Z,2.90
2023-01-10T12:47:54.370Z,3.00
2023-01-10T12:52:03.533Z,2.15
2023-01-10T12:56:13.128Z,2.80
2023-01-10T13:00:21.719Z,2.80
2023-01-10T13:04:26.981Z,2.67
2023-01-10T13:08:34.515Z,3.22
2023-01-10T13:12:41.697Z,3.03
2023-01-10T13:16:49.580Z,3.15
2023-01-10T13:21:03.993Z,3.00
2023-01-10T13:25:07.273Z,2.50
2023-01-10T13:29:13.464Z,2.65
2023-01-10T13:33:22.525Z,2.47
2023-01-10T13:37:28.223Z,2.20
2023-01-10T13:42:21.679Z,2.30
2023-01-10T13:46:39.603Z,2.83
2023-01-10T13:50:51.600Z,2.28
2023-01-10T13:54:58.331Z,2.28
2023-01-10T13:59:19.770Z,2.55
2023-01-10T14:03:41.051Z,2.88
2023-01-10T14:07:46.441Z,2.47
2023-01-10T14:11:53.115Z,2.42
2023-01-10T14:15:56.429Z,2.05
2023-01-10T14:20:09.357Z,1.85
2023-01-10T14:24:25.075Z,2.20
2023-01-10T14:28:30.719Z,2.40
2023-01-10T14:32:38.152Z,2.90
2023-01-10T14:36:50.746Z,2.58
2023-01-10T14:40:58.138Z,2.42
2023-01-10T14:45:04.818Z,2.38
2023-01-10T14:49:21.779Z,3.10
2023-01-10T14:54:18.448Z,2.47
2023-01-10T14:58:22.624Z,2.40
2023-01-10T15:02:26.094Z,2.00
2023-01-10T15:10:36.012Z,2.20
2023-01-10T15:14:39.118Z,2.20
2023-01-10T15:18:45.097Z,1.92
2023-01-10T15:22:49.855Z,2.03
2023-01-10T15:26:54.057Z,2.13
2023-01-10T15:30:58.202Z,2.08
2023-01-10T15:35:02.428Z,1.70
2023-01-10T15:39:05.144Z,3.00
2023-01-10T15:43:24.985Z,1.73
2023-01-10T15:47:40.466Z,2.00
2023-01-10T15:51:48.548Z,2.42
2023-01-10T15:55:54.449Z,1.85
2023-01-10T16:00:00.090Z,2.25
2023-01-10T16:04:04.873Z,1.58
2023-01-10T16:08:08.473Z,1.58
2023-01-10T16:12:43.447Z,2.25
2023-01-10T16:16:47.323Z,1.77
2023-01-10T16:20:52.474Z,1.92
2023-01-10T16:24:54.979Z,2.00
2023-01-10T16:28:57.517Z,2.25
2023-01-10T16:33:10.135Z,2.20
2023-01-10T16:37:12.638Z,1.88
2023-01-10T16:41:33.656Z,2.45
2023-01-10T16:45:36.277Z,2.22
2023-01-10T16:49:41.680Z,3.23
2023-01-10T16:53:44.640Z,1.98
2023-01-10T16:57:49.060Z,1.90
2023-01-10T17:01:54.689Z,1.98
2023-01-10T17:05:58.584Z,2.30
2023-01-10T17:10:01.081Z,2.00
2023-01-10T17:14:04.275Z,2.17
2023-01-10T17:18:06.911Z,2.00
2023-01-10T17:22:10.833Z,3.30
2023-01-10T17:26:15.308Z,1.95
2023-01-10T17:30:18.340Z,1.90
2023-01-10T17:34:20.849Z,2.08
2023-01-10T17:38:26.668Z,2.07
2023-01-10T17:42:29.207Z,2.08
2023-01-10T17:46:31.839Z,1.73
2023-01-10T17:50:34.546Z,2.37
2023-01-10T17:54:38.357Z,2.77
2023-01-10T17:58:40.955Z,2.70
2023-01-10T18:02:43.488Z,2.10
2023-01-10T18:06:46.124Z,1.70
2023-01-10T18:10:50.622Z,2.00
2023-01-10T18:14:53.107Z,2.25
2023-01-10T18:18:56.574Z,1.90
2023-01-10T18:27:20.929Z,2.35
2023-01-10T18:31:23.528Z,2.05
2023-01-10T18:35:26.862Z,2.00
2023-01-10T18:39:29.373Z,1.88
2023-01-10T18:43:33.501Z,2.28
2023-01-10T18:47:36.077Z,2.05
2023-01-10T18:51:38.592Z,2.23
2023-01-10T18:55:41.140Z,2.25
2023-01-10T18:59:44.971Z,2.47
2023-01-10T19:03:47.684Z,2.58
2023-01-10T19:07:50.241Z,2.50
2023-01-10T19:11:52.753Z,2.50
2023-01-10T19:16:08.555Z,2.57
2023-01-10T19:20:12.217Z,2.55
2023-01-10T19:24:22.474Z,2.42
2023-01-10T19:28:25.027Z,2.05
2023-01-10T19:32:28.943Z,2.37
2023-01-10T19:36:34.542Z,2.92
2023-01-10T19:40:37.113Z,2.53
2023-01-10T19:44:39.648Z,2.50
2023-01-10T19:48:43.478Z,2.20
2023-01-10T19:52:46.802Z,2.50
2023-01-10T19:56:49.305Z,1.85
2023-01-10T20:00:52.038Z,2.63
2023-01-10T20:04:55.914Z,2.10
2023-01-10T20:08:58.720Z,2.50
2023-01-10T20:13:01.245Z,2.47
2023-01-10T20:17:15.007Z,2.10
2023-01-10T20:21:19.913Z,2.10
2023-01-10T20:25:22.426Z,2.17
2023-01-10T20:29:25.052Z,2.92
2023-01-10T20:33:27.693Z,2.50
2023-01-10T20:37:32.884Z,2.40
2023-01-10T20:41:37.128Z,2.15
2023-01-10T20:45:39.650Z,2.88
2023-01-10T20:49:42.149Z,3.45
2023-01-10T20:53:45.989Z,3.15
2023-01-10T20:57:48.518Z,2.00
2023-01-10T21:01:51.075Z,2.78
2023-01-10T21:05:55.361Z,1.90
2023-01-10T21:09:59.273Z,2.60
2023-01-10T21:14:01.810Z,1.80
2023-01-10T21:18:04.593Z,2.63
2023-01-10T21:22:07.152Z,2.00
2023-01-10T21:26:13.471Z,1.80
2023-01-10T21:30:18.678Z,2.30
2023-01-10T21:34:21.468Z,2.40
2023-01-10T21:38:24.276Z,2.03
2023-01-10T21:42:38.085Z,2.25
2023-01-10T21:46:44.417Z,1.77
2023-01-10T21:50:49.410Z,1.63
2023-01-10T21:54:51.937Z,1.88
2023-01-10T21:58:55.881Z,2.45
